Time;durP1;ratioP1;P1;durP2;ratioP2;P2;SDS_P1;SDS_P2;PMS_P1;PMS_P2;Temp;Humidity;BMP_temperature;BMP_pressure;BME280_temperature;BME280_humidity;BME280_pressure;Samples;Min_cycle;Max_cycle;Signal;HPM_P1;HPM_P2
2021/09/27 00:02:33;;;;;;;0.10;0.10;;;;;;;16.42;100.00;101643.19;10525428;28;20052;-71
2021/09/27 00:07:33;;;;;;;0.10;0.10;;;;;;;16.42;100.00;101640.50;10543348;28;20126;-71
2021/09/27 00:12:34;;;;;;;0.10;0.10;;;;;;;16.41;100.00;101638.81;10543804;28;20529;-71
2021/09/27 00:17:34;;;;;;;0.00;0.00;;;;;;;16.39;100.00;101630.09;10525372;28;20032;-69
2021/09/27 00:22:35;;;;;;;0.10;0.10;;;;;;;16.37;100.00;101632.09;10531665;28;20678;-69
2021/09/27 00:27:35;;;;;;;0.00;0.00;;;;;;;16.40;100.00;101636.31;10524288;28;20362;-69
2021/09/27 00:32:35;;;;;;;0.00;0.00;;;;;;;16.40;100.00;101628.22;10529288;28;20318;-69
2021/09/27 00:37:36;;;;;;;0.10;0.10;;;;;;;16.36;100.00;101645.75;10500776;28;20490;-69
2021/09/27 00:42:37;;;;;;;0.00;0.00;;;;;;;16.36;100.00;101637.69;10512228;28;20088;-69
2021/09/27 00:47:37;;;;;;;0.10;0.10;;;;;;;16.35;100.00;101635.97;10541227;28;20019;-68
2021/09/27 00:52:38;;;;;;;0.00;0.00;;;;;;;16.33;100.00;101643.41;10526471;28;20025;-68
2021/09/27 00:57:39;;;;;;;0.10;0.10;;;;;;;16.30;100.00;101636.53;10533551;28;20362;-67
2021/09/27 01:02:41;;;;;;;0.03;0.03;;;;;;;16.25;100.00;101642.44;10507655;28;20124;-69
2021/09/27 01:07:48;;;;;;;0.10;0.10;;;;;;;16.20;100.00;101641.28;10493801;28;20351;-68
2021/09/27 01:13:07;;;;;;;0.00;0.00;;;;;;;16.17;100.00;101633.56;10513736;28;20157;-68
2021/09/27 01:18:17;;;;;;;0.10;0.10;;;;;;;16.14;100.00;101625.88;10507337;28;20022;-69
2021/09/27 01:23:38;;;;;;;0.03;0.03;;;;;;;16.14;100.00;101621.31;10529397;28;20069;-69
2021/09/27 01:29:11;;;;;;;0.00;0.00;;;;;;;16.14;100.00;101618.63;10508210;28;20035;-69
2021/09/27 01:34:18;;;;;;;0.10;0.10;;;;;;;16.16;100.00;101622.00;10505816;28;20016;-69
2021/09/27 01:39:29;;;;;;;0.10;0.10;;;;;;;16.19;100.00;101618.13;10503663;28;20096;-69
2021/09/27 01:44:48;;;;;;;0.10;0.10;;;;;;;16.19;100.00;101618.94;10498536;28;20040;-69
2021/09/27 01:49:54;;;;;;;0.10;0.10;;;;;;;16.19;100.00;101618.13;10519549;28;20073;-69
2021/09/27 01:55:02;;;;;;;0.10;0.10;;;;;;;16.20;100.00;101615.25;10529244;28;20069;-69
2021/09/27 02:00:09;;;;;;;0.10;0.10;;;;;;;16.20;100.00;101612.56;10512735;28;20430;-67
2021/09/27 02:05:16;;;;;;;0.10;0.10;;;;;;;16.21;100.00;101627.69;10483011;28;20108;-68
2021/09/27 02:10:23;;;;;;;0.10;0.10;;;;;;;16.24;100.00;101621.13;10524888;28;20119;-68
2021/09/27 02:15:32;;;;;;;0.10;0.10;;;;;;;16.23;100.00;101622.97;10494257;28;20012;-69
2021/09/27 02:20:45;;;;;;;0.00;0.00;;;;;;;16.23;100.00;101612.22;10495303;28;20032;-69
2021/09/27 02:25:47;;;;;;;0.10;0.10;;;;;;;16.25;100.00;101612.84;10520747;28;20506;-68
2021/09/27 02:31:02;;;;;;;0.00;0.00;;;;;;;16.26;100.00;101608.31;10502707;28;20023;-68
2021/09/27 02:36:12;;;;;;;0.10;0.10;;;;;;;16.29;100.00;101602.63;10521047;28;20016;-69
2021/09/27 02:41:17;;;;;;;0.00;0.00;;;;;;;16.33;100.00;101593.16;10495890;28;20069;-68
2021/09/27 02:46:19;;;;;;;0.00;0.00;;;;;;;16.33;100.00;101603.91;10501725;28;20326;-69
2021/09/27 02:51:20;;;;;;;0.00;0.00;;;;;;;16.34;100.00;101610.97;10510728;28;20425;-69
2021/09/27 02:56:41;;;;;;;0.10;0.10;;;;;;;16.35;100.00;101615.34;10515286;28;20077;-69
2021/09/27 03:02:06;;;;;;;0.10;0.10;;;;;;;16.33;100.00;101608.47;10500304;28;20025;-68
2021/09/27 03:07:25;;;;;;;0.03;0.03;;;;;;;16.35;100.00;101622.53;10486611;28;20024;-68
2021/09/27 03:12:37;;;;;;;0.10;0.10;;;;;;;16.35;100.00;101609.09;10516819;28;20202;-69
2021/09/27 03:17:45;;;;;;;0.10;0.10;;;;;;;16.37;100.00;101612.47;10500310;28;20268;-69
2021/09/27 03:22:58;;;;;;;0.10;0.10;;;;;;;16.37;100.00;101605.22;10486542;28;20377;-69
2021/09/27 03:28:30;;;;;;;0.00;0.00;;;;;;;16.40;100.00;101598.66;10496995;28;20108;-69
2021/09/27 03:33:36;;;;;;;0.10;0.10;;;;;;;16.39;100.00;101597.00;10491530;28;20114;-69
2021/09/27 03:38:48;;;;;;;0.10;0.10;;;;;;;16.39;100.00;101599.69;10486305;28;20070;-69
2021/09/27 03:43:57;;;;;;;0.10;0.10;;;;;;;16.40;100.00;101604.03;10486741;28;20561;-69
2021/09/27 03:49:17;;;;;;;0.10;0.10;;;;;;;16.41;100.00;101606.56;10487433;28;20520;-70
2021/09/27 03:54:32;;;;;;;0.10;0.10;;;;;;;16.40;100.00;101602.19;10489748;28;20028;-69
2021/09/27 03:59:48;;;;;;;0.00;0.00;;;;;;;16.41;100.00;101606.56;10487027;28;20051;-69
2021/09/27 04:05:05;;;;;;;0.00;0.00;;;;;;;16.41;100.00;101616.47;10467553;28;20021;-70
2021/09/27 04:10:21;;;;;;;0.10;0.10;;;;;;;16.39;100.00;101618.50;10481416;28;20025;-69
2021/09/27 04:15:43;;;;;;;0.00;0.00;;;;;;;16.40;100.00;101614.78;10488538;28;20016;-70
2021/09/27 04:21:01;;;;;;;0.10;0.10;;;;;;;16.42;100.00;101618.16;10468798;28;20119;-69
2021/09/27 04:26:10;;;;;;;0.10;0.10;;;;;;;16.42;100.00;101618.97;10491639;28;20104;-69
2021/09/27 04:31:10;;;;;;;0.10;0.10;;;;;;;16.43;100.00;101609.88;10495862;28;20107;-70
2021/09/27 04:36:13;;;;;;;0.10;0.10;;;;;;;16.44;100.00;101613.44;10496793;28;20107;-68
2021/09/27 04:41:38;;;;;;;0.10;0.10;;;;;;;16.43;100.00;101612.56;10495700;28;20095;-68
2021/09/27 04:46:54;;;;;;;0.10;0.10;;;;;;;16.45;100.00;101613.25;10494845;28;20075;-69
2021/09/27 04:52:14;;;;;;;0.10;0.10;;;;;;;16.45;100.00;101605.16;10495145;28;20028;-68
2021/09/27 04:57:26;;;;;;;0.00;0.00;;;;;;;16.47;100.00;101602.31;10477912;28;20029;-68
2021/09/27 05:02:55;;;;;;;0.00;0.00;;;;;;;16.46;100.00;101595.25;10495463;28;20036;-69
2021/09/27 05:08:21;;;;;;;0.10;0.10;;;;;;;16.48;100.00;101601.28;10456089;28;20142;-69
2021/09/27 05:13:30;;;;;;;0.00;0.00;;;;;;;16.49;100.00;101592.19;10453000;28;20029;-69
2021/09/27 05:18:42;;;;;;;0.00;0.00;;;;;;;16.51;100.00;101592.88;10451634;28;20451;-69
2021/09/27 05:24:19;;;;;;;0.03;0.03;;;;;;;16.50;100.00;101585.81;10452331;28;20032;-68
2021/09/27 05:29:44;;;;;;;0.10;0.10;;;;;;;16.49;100.00;101590.38;10452106;28;20064;-68
2021/09/27 05:35:05;;;;;;;0.10;0.10;;;;;;;16.48;100.00;101586.00;10451699;28;20043;-69
2021/09/27 05:40:47;;;;;;;0.00;0.00;;;;;;;16.46;100.00;101579.97;10444515;28;20072;-68
2021/09/27 05:46:17;;;;;;;0.10;0.10;;;;;;;16.47;100.00;101570.06;10428080;28;20051;-69
2021/09/27 05:51:22;;;;;;;0.10;0.10;;;;;;;16.46;100.00;101579.97;10451482;28;20128;-69
2021/09/27 05:56:23;;;;;;;0.00;0.00;;;;;;;16.46;100.00;101576.44;10477522;28;20476;-68
2021/09/27 06:01:35;;;;;;;0.10;0.10;;;;;;;16.45;100.00;101575.59;10534111;28;20030;-69
2021/09/27 06:06:46;;;;;;;0.00;0.00;;;;;;;16.42;100.00;101570.56;10534637;28;20030;-69
2021/09/27 06:12:04;;;;;;;0.00;0.00;;;;;;;16.39;100.00;101567.41;10531015;28;20488;-69
2021/09/27 06:17:11;;;;;;;0.00;0.00;;;;;;;16.40;100.00;101566.41;10515371;28;20025;-69
2021/09/27 06:22:26;;;;;;;0.10;0.10;;;;;;;16.42;100.00;101557.13;10483207;28;20024;-70
2021/09/27 06:27:35;;;;;;;0.10;0.10;;;;;;;16.47;100.00;101543.16;10490973;28;20111;-70
2021/09/27 06:32:36;;;;;;;0.00;0.00;;;;;;;16.52;100.00;101548.81;10473752;28;20082;-69
2021/09/27 06:37:36;;;;;;;0.10;0.10;;;;;;;16.54;100.00;101565.59;10491354;28;20485;-69
2021/09/27 06:42:37;;;;;;;0.00;0.00;;;;;;;16.63;100.00;101571.75;10472130;28;20115;-69
2021/09/27 06:47:37;;;;;;;0.00;0.00;;;;;;;16.66;100.00;101558.78;10490494;28;20044;-69
2021/09/27 06:52:38;;;;;;;0.00;0.00;;;;;;;16.71;100.00;101563.63;10490356;28;20020;-69
2021/09/27 06:57:39;;;;;;;0.10;0.10;;;;;;;16.75;100.00;101560.41;10490814;28;20496;-68
2021/09/27 07:02:39;;;;;;;0.10;0.10;;;;;;;16.80;100.00;101564.44;10490346;28;20081;-69
2021/09/27 07:07:40;;;;;;;0.10;0.10;;;;;;;16.84;100.00;101557.66;10490121;28;20199;-68
2021/09/27 07:12:41;;;;;;;0.00;0.00;;;;;;;16.91;100.00;101555.91;10481548;28;20481;-68
2021/09/27 07:17:41;;;;;;;0.10;0.10;;;;;;;16.98;100.00;101548.75;10440408;28;20708;-68
2021/09/27 07:22:42;;;;;;;0.10;0.10;;;;;;;17.08;100.00;101538.59;10448938;28;20493;-67
2021/09/27 07:27:43;;;;;;;0.10;0.10;;;;;;;17.26;100.00;101556.22;10447966;28;20482;-67
2021/09/27 07:32:44;;;;;;;0.10;0.10;;;;;;;17.38;100.00;101549.34;10440956;28;20025;-68
2021/09/27 07:37:44;;;;;;;0.00;0.00;;;;;;;17.43;100.00;101544.25;10447990;28;20029;-67
2021/09/27 07:42:44;;;;;;;0.00;0.00;;;;;;;17.57;100.00;101543.41;10448191;28;20057;-67
2021/09/27 07:47:45;;;;;;;0.03;0.03;;;;;;;17.71;100.00;101557.00;10448058;28;20083;-67
2021/09/27 07:52:46;;;;;;;0.00;0.00;;;;;;;17.77;100.00;101559.81;10446955;28;20029;-67
2021/09/27 07:57:46;;;;;;;0.00;0.00;;;;;;;17.73;100.00;101557.66;10474080;28;20282;-66
2021/09/27 08:02:47;;;;;;;0.00;0.00;;;;;;;17.71;100.00;101557.00;10488578;28;20392;-67
2021/09/27 08:07:47;;;;;;;0.00;0.00;;;;;;;17.64;100.00;101563.16;10497060;28;20107;-67
2021/09/27 08:12:48;;;;;;;0.10;0.10;;;;;;;17.56;100.00;101565.13;10497282;28;20123;-67
2021/09/27 08:17:51;;;;;;;0.10;0.10;;;;;;;17.50;100.00;101564.00;10461892;28;20330;-67
2021/09/27 08:22:53;;;;;;;0.00;0.00;;;;;;;17.48;100.00;101573.28;10495178;28;20429;-67
2021/09/27 08:27:54;;;;;;;0.00;0.00;;;;;;;17.52;100.00;101575.44;10494824;28;20477;-67
2021/09/27 08:32:55;;;;;;;0.00;0.00;;;;;;;17.58;100.00;101569.31;10496789;28;20033;-67
2021/09/27 08:37:56;;;;;;;0.10;0.10;;;;;;;17.65;100.00;101567.50;10495984;28;20040;-67
2021/09/27 08:43:02;;;;;;;0.00;0.00;;;;;;;17.76;100.00;101566.22;10494720;28;20037;-66
2021/09/27 08:48:19;;;;;;;0.00;0.00;;;;;;;17.87;99.84;101575.72;10494567;28;20110;-68
2021/09/27 08:53:20;;;;;;;0.00;0.00;;;;;;;17.99;99.05;101568.78;10490103;28;20493;-68
2021/09/27 08:58:44;;;;;;;0.10;0.10;;;;;;;18.14;98.14;101557.97;10477558;28;20031;-68
2021/09/27 09:04:03;;;;;;;0.10;0.10;;;;;;;18.25;97.40;101567.41;10495385;28;20024;-66
2021/09/27 09:09:26;;;;;;;0.00;0.00;;;;;;;18.28;96.89;101575.13;10475296;28;20025;-67
2021/09/27 09:14:47;;;;;;;0.10;0.10;;;;;;;18.45;96.81;101567.63;10493998;28;20339;-68
2021/09/27 09:19:48;;;;;;;0.10;0.10;;;;;;;18.81;96.80;101572.94;10491475;28;20093;-67
2021/09/27 09:24:49;;;;;;;0.10;0.10;;;;;;;19.27;94.23;101566.19;10489999;28;20382;-67
2021/09/27 09:29:50;;;;;;;0.10;0.10;;;;;;;19.87;91.37;101567.38;10493140;28;20024;-67
2021/09/27 09:35:11;;;;;;;0.00;0.00;;;;;;;20.04;87.68;101565.97;10494063;28;20107;-67
2021/09/27 09:40:20;;;;;;;0.00;0.00;;;;;;;19.85;87.66;101567.56;10475730;28;20428;-67
2021/09/27 09:45:23;;;;;;;0.00;0.00;;;;;;;19.59;88.36;101572.81;10493606;28;20032;-68
2021/09/27 09:50:24;;;;;;;0.05;0.05;;;;;;;19.94;90.66;101557.38;10493274;28;20095;-67
2021/09/27 09:55:43;;;;;;;0.00;0.00;;;;;;;20.90;85.42;101550.88;10493572;28;20056;-67
2021/09/27 10:00:50;;;;;;;0.00;0.00;;;;;;;20.99;86.12;101552.31;10472610;28;20024;-67
2021/09/27 10:06:22;;;;;;;0.10;0.10;;;;;;;20.68;84.19;101553.81;10480357;28;20021;-67
2021/09/27 10:11:36;;;;;;;0.00;0.00;;;;;;;20.59;86.15;101549.63;10489545;28;20043;-67
2021/09/27 10:16:40;;;;;;;0.00;0.00;;;;;;;20.57;86.59;101540.88;10492447;28;20023;-67
2021/09/27 10:21:51;;;;;;;0.00;0.00;;;;;;;20.84;86.51;101543.59;10491870;28;20369;-67
2021/09/27 10:26:53;;;;;;;0.10;0.10;;;;;;;21.28;84.21;101532.03;10473717;28;20085;-66
2021/09/27 10:31:58;;;;;;;0.00;0.00;;;;;;;21.63;82.51;101532.56;10482857;28;20074;-69
2021/09/27 10:37:10;;;;;;;0.00;0.00;;;;;;;21.83;81.73;101523.50;10473414;28;20382;-68
2021/09/27 10:42:15;;;;;;;0.10;0.10;;;;;;;21.87;81.71;101522.00;10491402;28;20026;-68
2021/09/27 10:47:24;;;;;;;0.00;0.00;;;;;;;21.76;81.59;101515.41;10479230;28;20016;-67
2021/09/27 10:52:36;;;;;;;0.00;0.00;;;;;;;21.79;79.74;101517.69;10491297;28;20068;-67
2021/09/27 10:57:49;;;;;;;0.00;0.00;;;;;;;21.90;79.60;101510.72;10490649;28;20115;-67
2021/09/27 11:03:02;;;;;;;0.00;0.00;;;;;;;22.17;81.10;101502.44;10490833;28;20094;-68
2021/09/27 11:08:10;;;;;;;0.00;0.00;;;;;;;22.03;78.25;101498.97;10490296;28;20044;-68
2021/09/27 11:13:32;;;;;;;0.00;0.00;;;;;;;21.95;75.90;101502.78;10490469;28;20435;-68
2021/09/27 11:18:33;;;;;;;0.10;0.10;;;;;;;21.95;76.60;101507.38;10462082;28;20047;-68
2021/09/27 11:23:37;;;;;;;0.10;0.10;;;;;;;21.87;77.53;101508.44;10451124;28;20416;-69
2021/09/27 11:29:02;;;;;;;0.00;0.00;;;;;;;21.95;77.65;101489.22;10464093;28;20102;-68
2021/09/27 11:34:09;;;;;;;0.00;0.00;;;;;;;21.88;76.75;101489.25;10448664;28;20028;-68
2021/09/27 11:39:16;;;;;;;0.10;0.10;;;;;;;21.58;77.19;101488.16;10448319;28;20434;-68
2021/09/27 11:44:28;;;;;;;0.00;0.00;;;;;;;21.44;77.92;101488.25;10448466;28;20024;-68
2021/09/27 11:49:51;;;;;;;0.00;0.00;;;;;;;21.30;78.63;101488.47;10448047;28;20040;-68
2021/09/27 11:54:58;;;;;;;0.00;0.00;;;;;;;20.97;78.69;101486.69;10454764;28;20273;-68
2021/09/27 12:00:12;;;;;;;0.10;0.10;;;;;;;20.94;79.27;101482.56;10530590;28;20028;-68
2021/09/27 12:05:39;;;;;;;0.00;0.00;;;;;;;20.94;80.22;101481.69;10530854;28;20500;-69
2021/09/27 12:10:47;;;;;;;0.00;0.00;;;;;;;20.86;79.95;101477.34;10504250;28;20039;-68
2021/09/27 12:15:59;;;;;;;0.00;0.00;;;;;;;20.89;79.89;101485.06;10529772;28;20024;-68
2021/09/27 12:21:05;;;;;;;0.10;0.10;;;;;;;21.19;79.96;101469.13;10508725;28;20016;-68
2021/09/27 12:26:05;;;;;;;0.00;0.00;;;;;;;21.48;78.57;101465.06;10512410;28;20038;-68
2021/09/27 12:31:06;;;;;;;0.00;0.00;;;;;;;21.53;78.20;101469.03;10530249;28;20072;-67
2021/09/27 12:36:10;;;;;;;0.10;0.10;;;;;;;21.59;77.89;101466.28;10530670;28;20330;-68
2021/09/27 12:41:12;;;;;;;0.10;0.10;;;;;;;21.64;78.66;101465.59;10496890;28;20020;-67
2021/09/27 12:46:21;;;;;;;0.10;0.10;;;;;;;21.42;77.09;101452.38;10472007;28;20024;-66
2021/09/27 12:51:43;;;;;;;0.10;0.10;;;;;;;21.27;77.72;101454.50;10495573;28;20438;-66
2021/09/27 12:56:43;;;;;;;0.00;0.00;;;;;;;21.20;77.57;101454.53;10495907;28;20054;-66
2021/09/27 13:01:48;;;;;;;0.00;0.00;;;;;;;21.16;78.14;101456.00;10477989;28;20107;-67
2021/09/27 13:06:53;;;;;;;0.00;0.00;;;;;;;21.23;77.08;101447.84;10495597;28;20055;-67
2021/09/27 13:12:21;;;;;;;0.00;0.00;;;;;;;21.29;76.66;101451.56;10495290;28;20024;-66
2021/09/27 13:17:25;;;;;;;0.00;0.00;;;;;;;21.37;74.09;101449.47;10494757;28;20093;-65
2021/09/27 13:22:44;;;;;;;0.10;0.10;;;;;;;21.48;75.47;101440.69;10524467;28;20035;-66
2021/09/27 13:27:56;;;;;;;0.00;0.00;;;;;;;21.65;74.92;101435.59;10497954;28;20393;-66
2021/09/27 13:33:03;;;;;;;0.00;0.00;;;;;;;21.72;75.54;101432.00;10492671;28;20043;-67
2021/09/27 13:38:08;;;;;;;0.00;0.00;;;;;;;21.63;75.22;101431.44;10494129;28;20016;-66
2021/09/27 13:43:29;;;;;;;0.00;0.00;;;;;;;21.49;75.47;101436.09;10493996;28;20082;-66
2021/09/27 13:48:29;;;;;;;0.00;0.00;;;;;;;21.35;76.67;101440.72;10480241;28;20044;-67
2021/09/27 13:53:50;;;;;;;0.03;0.03;;;;;;;21.29;75.90;101435.31;10493862;28;20089;-67
2021/09/27 13:58:51;;;;;;;0.10;0.10;;;;;;;21.27;76.94;101432.84;10492450;28;20390;-66
2021/09/27 14:03:51;;;;;;;0.00;0.00;;;;;;;21.32;76.48;101433.03;10493170;28;20020;-67
2021/09/27 14:08:52;;;;;;;0.00;0.00;;;;;;;21.44;77.83;101433.22;10492680;28;20028;-67
2021/09/27 14:13:52;;;;;;;0.00;0.00;;;;;;;21.55;77.28;101435.22;10474582;28;20627;-66
2021/09/27 14:18:53;;;;;;;0.10;0.10;;;;;;;21.58;76.95;101437.47;10491870;28;20017;-66
2021/09/27 14:23:58;;;;;;;0.00;0.00;;;;;;;21.52;75.80;101435.66;10492612;28;20302;-67
2021/09/27 14:28:59;;;;;;;0.00;0.00;;;;;;;21.41;75.88;101430.91;10492083;28;20485;-67
2021/09/27 14:33:59;;;;;;;0.00;0.00;;;;;;;21.21;76.07;101434.53;10491967;28;20020;-66
2021/09/27 14:38:59;;;;;;;0.10;0.10;;;;;;;21.02;77.72;101438.13;10508455;28;20526;-66
2021/09/27 14:44:00;;;;;;;0.00;0.00;;;;;;;20.85;78.92;101450.47;10511043;28;20082;-66
2021/09/27 14:49:00;;;;;;;0.00;0.00;;;;;;;20.65;78.78;101437.81;10493610;28;20035;-66
2021/09/27 14:54:01;;;;;;;0.10;0.10;;;;;;;20.52;79.52;101448.63;10485083;28;20020;-67
2021/09/27 14:59:01;;;;;;;0.00;0.00;;;;;;;20.49;80.01;101446.34;10505762;28;20103;-67
2021/09/27 15:04:03;;;;;;;0.00;0.00;;;;;;;20.43;80.64;101449.91;10534357;28;20286;-67
2021/09/27 15:09:04;;;;;;;0.10;0.10;;;;;;;20.35;81.44;101451.75;10520392;28;20024;-67
2021/09/27 15:14:05;;;;;;;0.00;0.00;;;;;;;20.25;80.84;101445.13;10533618;28;20020;-66
2021/09/27 15:19:07;;;;;;;0.00;0.00;;;;;;;20.12;80.52;101445.94;10503141;28;20270;-67
2021/09/27 15:24:08;;;;;;;0.00;0.00;;;;;;;19.99;82.29;101456.75;10532447;28;20039;-66
2021/09/27 15:29:12;;;;;;;0.10;0.10;;;;;;;19.88;82.76;101467.13;10532317;28;20030;-66
2021/09/27 15:34:17;;;;;;;0.10;0.10;;;;;;;19.78;82.79;101460.44;10532389;28;20480;-66
2021/09/27 15:39:19;;;;;;;0.00;0.00;;;;;;;19.65;83.70;101453.97;10532272;28;20111;-67
2021/09/27 15:44:26;;;;;;;0.00;0.00;;;;;;;19.57;83.77;101454.09;10532394;28;20388;-66
2021/09/27 15:49:29;;;;;;;0.10;0.10;;;;;;;19.48;83.61;101465.31;10513526;28;20016;-67
2021/09/27 15:54:30;;;;;;;0.00;0.00;;;;;;;19.41;84.11;101473.41;10528227;28;20023;-67
2021/09/27 15:59:31;;;;;;;0.10;0.10;;;;;;;19.29;85.21;101464.22;10472120;28;20062;-67
2021/09/27 16:04:34;;;;;;;0.00;0.00;;;;;;;19.21;85.06;101465.22;10489942;28;20031;-67
2021/09/27 16:09:37;;;;;;;0.10;0.10;;;;;;;19.11;85.35;101451.22;10462267;28;20434;-66
2021/09/27 16:14:37;;;;;;;0.00;0.00;;;;;;;19.03;85.24;101448.72;10448056;28;20025;-66
2021/09/27 16:19:38;;;;;;;0.10;0.10;;;;;;;18.94;85.63;101451.56;10448000;28;20025;-67
2021/09/27 16:24:38;;;;;;;0.00;0.00;;;;;;;18.86;85.97;101461.69;10454648;28;20070;-66
2021/09/27 16:29:39;;;;;;;0.00;0.00;;;;;;;18.76;86.79;101473.69;10456042;28;20436;-67
2021/09/27 16:34:39;;;;;;;0.10;0.10;;;;;;;18.65;87.21;101476.06;10455170;28;20013;-66
2021/09/27 16:39:40;;;;;;;0.10;0.10;;;;;;;18.57;86.95;101471.63;10455452;28;20376;-67
2021/09/27 16:44:41;;;;;;;0.10;0.10;;;;;;;18.49;87.30;101478.00;10440089;28;20033;-67
2021/09/27 16:49:42;;;;;;;0.00;0.00;;;;;;;18.40;87.07;101473.78;10437460;28;20115;-66
2021/09/27 16:54:43;;;;;;;0.10;0.10;;;;;;;18.32;87.14;101471.22;10438573;28;20485;-67
2021/09/27 16:59:44;;;;;;;0.10;0.10;;;;;;;18.24;87.58;101468.69;10478165;28;20036;-68
2021/09/27 17:04:44;;;;;;;0.10;0.10;;;;;;;18.18;87.74;101478.38;10477940;28;20032;-67
2021/09/27 17:09:49;;;;;;;0.00;0.00;;;;;;;18.12;88.18;101479.13;10495184;28;20032;-67
2021/09/27 17:19:53;;;;;;;0.00;0.00;;;;;;;18.04;88.12;101476.59;10496253;28;20449;-66
2021/09/27 17:24:53;;;;;;;0.10;0.10;;;;;;;18.03;87.73;101480.28;10494896;28;20097;-67
2021/09/27 17:29:54;;;;;;;0.10;0.10;;;;;;;18.04;87.79;101490.91;10494730;28;20028;-66
2021/09/27 17:34:55;;;;;;;0.10;0.10;;;;;;;18.03;87.57;101485.69;10494195;28;20063;-66
2021/09/27 17:39:55;;;;;;;0.03;0.03;;;;;;;18.00;87.45;101476.13;10494281;28;20047;-67
2021/09/27 17:44:56;;;;;;;0.10;0.10;;;;;;;17.97;88.29;101489.97;10493825;28;20020;-67
2021/09/27 17:49:57;;;;;;;0.10;0.10;;;;;;;17.96;87.90;101490.19;10494595;28;20020;-67
2021/09/27 17:54:57;;;;;;;0.00;0.00;;;;;;;17.90;88.24;101488.25;10494290;28;20021;-66
2021/09/27 17:59:57;;;;;;;0.10;0.10;;;;;;;17.90;88.23;101488.25;10494228;28;20043;-71
2021/09/27 18:04:57;;;;;;;0.10;0.10;;;;;;;17.88;88.69;101488.44;10494452;28;20059;-67
2021/09/27 18:09:58;;;;;;;0.07;0.07;;;;;;;17.84;88.23;101496.06;10493480;28;20039;-67
2021/09/27 18:14:59;;;;;;;0.10;0.10;;;;;;;17.82;89.01;101500.81;10492863;28;20034;-67
2021/09/27 18:19:59;;;;;;;0.10;0.10;;;;;;;17.75;89.98;101512.53;10493185;28;20016;-67
2021/09/27 18:25:00;;;;;;;0.00;0.00;;;;;;;17.71;90.61;101512.03;10492722;28;20025;-66
2021/09/27 18:30:00;;;;;;;0.00;0.00;;;;;;;17.69;90.59;101524.06;10492547;28;20071;-67
2021/09/27 18:35:03;;;;;;;0.00;0.00;;;;;;;17.65;90.85;101526.28;10492903;28;20037;-67
2021/09/27 18:40:05;;;;;;;0.00;0.00;;;;;;;17.61;90.44;101528.50;10492337;28;20029;-67
2021/09/27 18:45:11;;;;;;;0.00;0.00;;;;;;;17.59;91.19;101535.94;10491311;28;20032;-67
2021/09/27 18:50:14;;;;;;;0.10;0.10;;;;;;;17.57;90.98;101540.69;10491880;28;20032;-68
2021/09/27 18:55:15;;;;;;;0.10;0.10;;;;;;;17.54;90.79;101542.91;10491772;28;20020;-67
2021/09/27 19:00:17;;;;;;;0.00;0.00;;;;;;;17.50;91.62;101550.53;10491864;28;20044;-67
2021/09/27 19:05:17;;;;;;;0.10;0.10;;;;;;;17.49;91.41;101551.56;10491509;28;20056;-67
2021/09/27 19:10:18;;;;;;;0.00;0.00;;;;;;;17.47;91.79;101550.91;10491220;28;20048;-67
2021/09/27 19:15:19;;;;;;;0.10;0.10;;;;;;;17.47;91.61;101558.16;10488110;28;20013;-67
2021/09/27 19:20:20;;;;;;;0.10;0.10;;;;;;;17.49;91.45;101565.03;10449594;28;20033;-66
2021/09/27 19:25:20;;;;;;;0.08;0.08;;;;;;;17.50;91.39;101582.88;10449825;28;20053;-67
2021/09/27 19:30:21;;;;;;;0.10;0.10;;;;;;;17.47;91.61;101590.47;10465434;28;20108;-66
2021/09/27 19:35:21;;;;;;;0.10;0.10;;;;;;;17.45;92.19;101600.59;10448988;28;20438;-66
2021/09/27 19:40:22;;;;;;;0.00;0.00;;;;;;;17.40;92.77;101612.78;10448770;28;20111;-66
2021/09/27 19:45:23;;;;;;;0.00;0.00;;;;;;;17.35;92.82;101614.34;10448750;28;20021;-66
2021/09/27 19:50:24;;;;;;;0.10;0.10;;;;;;;17.35;93.10;101625.13;10448304;28;20021;-66
2021/09/27 19:55:27;;;;;;;0.10;0.10;;;;;;;17.32;93.29;101625.50;10456249;28;20031;-67
2021/09/27 20:00:28;;;;;;;0.10;0.10;;;;;;;17.30;93.74;101631.03;10495729;28;20746;-67
2021/09/27 20:05:29;;;;;;;0.00;0.00;;;;;;;17.30;94.21;101639.13;10477004;28;20025;-66
2021/09/27 20:10:31;;;;;;;0.10;0.10;;;;;;;17.28;94.23;101645.69;10495142;28;20033;-67
2021/09/27 20:15:33;;;;;;;0.05;0.05;;;;;;;17.30;94.09;101659.84;10494752;28;20107;-66
2021/09/27 20:20:34;;;;;;;0.00;0.00;;;;;;;17.29;95.06;101668.94;10494805;28;20492;-66
2021/09/27 20:25:36;;;;;;;0.10;0.10;;;;;;;17.06;94.75;101691.34;10493050;28;20020;-68
2021/09/27 20:30:38;;;;;;;0.10;0.10;;;;;;;16.68;92.92;101715.47;10475828;28;20025;-70
2021/09/27 20:35:39;;;;;;;0.00;0.00;;;;;;;16.20;91.38;101738.03;10494311;28;20028;-69
2021/09/27 20:40:40;;;;;;;0.00;0.00;;;;;;;15.82;93.25;101749.44;10494024;28;20024;-69
2021/09/27 20:45:41;;;;;;;0.10;0.10;;;;;;;15.61;94.56;101754.44;10493545;28;20029;-70
2021/09/27 20:50:42;;;;;;;0.00;0.00;;;;;;;15.47;96.03;101763.19;10474458;28;20091;-69
2021/09/27 20:55:43;;;;;;;0.10;0.10;;;;;;;15.30;96.35;101765.03;10467707;28;1054577;-69
2021/09/27 21:00:46;;;;;;;0.10;0.10;;;;;;;15.17;96.45;101785.16;10497877;28;20048;-68
2021/09/27 21:05:47;;;;;;;0.10;0.10;;;;;;;15.08;96.95;101780.78;10495493;28;20025;-69
2021/09/27 21:10:47;;;;;;;0.10;0.10;;;;;;;14.99;96.98;101791.69;10494092;28;20397;-68
2021/09/27 21:15:48;;;;;;;0.10;0.10;;;;;;;14.88;97.08;101801.69;10495524;28;20029;-68
2021/09/27 21:20:51;;;;;;;0.10;0.10;;;;;;;14.79;97.19;101808.06;10495995;28;20369;-68
2021/09/27 21:25:51;;;;;;;0.10;0.10;;;;;;;14.72;96.98;101812.41;10478584;28;20051;-69
2021/09/27 21:30:52;;;;;;;0.10;0.10;;;;;;;14.63;96.60;101822.25;10496117;28;20052;-68
2021/09/27 21:35:53;;;;;;;0.00;0.00;;;;;;;14.54;95.43;101851.84;10494165;28;20066;-69
2021/09/27 21:40:54;;;;;;;0.10;0.10;;;;;;;14.43;96.33;101837.72;10523535;28;20056;-70
2021/09/27 21:45:54;;;;;;;0.10;0.10;;;;;;;14.35;96.17;101829.63;10517884;28;20477;-69
2021/09/27 21:50:55;;;;;;;0.10;0.10;;;;;;;14.33;96.94;101847.69;10501001;28;20025;-68
2021/09/27 21:55:55;;;;;;;0.00;0.00;;;;;;;14.28;97.11;101841.97;10493237;28;20020;-68
2021/09/27 22:00:56;;;;;;;0.10;0.10;;;;;;;14.26;97.50;101862.75;10493763;28;20025;-68
2021/09/27 22:05:58;;;;;;;0.10;0.10;;;;;;;14.24;97.90;101864.72;10492895;28;20051;-68
2021/09/27 22:10:59;;;;;;;0.00;0.00;;;;;;;14.23;98.29;101868.41;10474522;28;20115;-68
2021/09/27 22:15:59;;;;;;;0.00;0.00;;;;;;;14.24;99.06;101876.28;10474600;28;20550;-68
2021/09/27 22:20:59;;;;;;;0.10;0.10;;;;;;;14.25;99.19;101864.59;10492207;28;20382;-68
2021/09/27 22:26:00;;;;;;;0.00;0.00;;;;;;;14.24;99.27;101870.91;10492247;28;20441;-68
2021/09/27 22:31:00;;;;;;;0.10;0.10;;;;;;;14.23;99.50;101881.81;10491918;28;20048;-68
2021/09/27 22:36:01;;;;;;;0.10;0.10;;;;;;;14.23;99.53;101871.94;10491182;28;20027;-68
2021/09/27 22:41:01;;;;;;;0.00;0.00;;;;;;;14.22;99.99;101885.47;10491047;28;20035;-68
2021/09/27 22:46:01;;;;;;;0.10;0.10;;;;;;;14.21;100.00;101906.06;10491330;28;20373;-68
2021/09/27 22:51:02;;;;;;;0.10;0.10;;;;;;;14.19;100.00;101940.22;10491274;28;20098;-68
2021/09/27 22:56:02;;;;;;;0.10;0.10;;;;;;;14.16;100.00;101926.28;10490898;28;20040;-68
2021/09/27 23:01:03;;;;;;;0.10;0.10;;;;;;;14.14;100.00;101939.03;10491148;28;20017;-67
2021/09/27 23:06:03;;;;;;;0.00;0.00;;;;;;;14.12;100.00;101941.84;10490765;28;20384;-68
2021/09/27 23:11:05;;;;;;;0.10;0.10;;;;;;;14.07;100.00;101933.44;10490824;28;20263;-68
2021/09/27 23:16:05;;;;;;;0.10;0.10;;;;;;;14.07;100.00;101940.63;10472328;28;20066;-68
2021/09/27 23:21:05;;;;;;;0.00;0.00;;;;;;;14.01;100.00;101959.00;10490438;28;20366;-68
2021/09/27 23:26:06;;;;;;;0.10;0.10;;;;;;;13.95;100.00;101964.97;10490940;28;20032;-67